KEWN/EWN METAR and TAF weather

Enter ICAO airport designator
Station Type Date Time Source
KEWN METAR 2021/10/22 19:54 UTC NOAA

KEWN 221954Z 16005KT 10SM VCTS FEW120 22/20 A2993 RMK AO2 LTG DSNT NE AND E AND SW RAE21 TSE27 SLP135 P0007 T02220200


Station Type Date Time Source
KEWN Decoded METAR 2021/10/22 19:54 UTC NOAA

New Bern, Craven County Regional Airport, NC, United States (KEWN) 35-04-03N 077-02-50W 3M
Oct 22, 2021 - 03:54 PM EDT / 2021.10.22 1954 UTC
Wind: from the SSE (160 degrees) at 6 MPH (5 KT):0
Visibility: 10 mile(s):0
Sky conditions: mostly clear
Weather: thunder in the vicinity; Lightning observed
Precipitation last hour: 0.07 inches
Temperature: 72.0 F (22.2 C)
Dew Point: 68.0 F (20.0 C)
Relative Humidity: 87%
Pressure (altimeter): 29.93 in. Hg (1013 hPa)
ob: KEWN 221954Z 16005KT 10SM VCTS FEW120 22/20 A2993 RMK AO2 LTG DSNT NE AND E AND SW RAE21 TSE27 SLP135 P0007 T02220200
cycle: 20

Station Type Date Time Source
KEWN TAF 2021/10/22 18:54 UTC NOAA

TAF KEWN 221752Z 2218/2318 22009G15KT P6SM VCSH BKN035
TEMPO 2218/2220 1SM TSRA BR BKN010CB
FM230000 21007KT P6SM SCT040
FM230400 28005KT P6SM SCT250
FM230900 32004KT P6SM FEW003
FM231300 33005KT P6SM FEW250

Example: see airport list